createdAt,value
2018-05-10T00:00:09.044Z,20.09
2018-05-10T00:01:09.776Z,20.07
2018-05-10T00:02:10.494Z,20.09
2018-05-10T00:03:11.230Z,20.09
2018-05-10T00:04:11.952Z,20.04
2018-05-10T00:05:12.676Z,20.10
2018-05-10T00:06:13.398Z,20.07
2018-05-10T00:07:14.156Z,20.04
2018-05-10T00:08:14.888Z,20.10
2018-05-10T00:09:15.605Z,20.10
2018-05-10T00:10:16.328Z,20.09
2018-05-10T00:11:17.153Z,19.95
2018-05-10T00:12:17.800Z,19.95
2018-05-10T00:13:18.525Z,20.00
2018-05-10T00:14:19.275Z,19.99
2018-05-10T00:15:20.000Z,19.92
2018-05-10T00:16:20.724Z,19.95
2018-05-10T00:17:21.474Z,19.96
2018-05-10T00:18:22.231Z,20.02
2018-05-10T00:19:22.966Z,19.94
2018-05-10T00:20:23.700Z,19.88
2018-05-10T00:21:24.477Z,19.94
2018-05-10T00:22:25.225Z,19.92
2018-05-10T00:23:25.951Z,19.86
2018-05-10T00:24:26.818Z,19.92
2018-05-10T00:25:27.399Z,19.88
2018-05-10T00:26:28.155Z,19.88
2018-05-10T00:27:28.892Z,19.89
2018-05-10T00:28:29.648Z,19.85
2018-05-10T00:29:30.375Z,19.94
2018-05-10T00:30:31.132Z,19.88
2018-05-10T00:31:31.856Z,19.82
2018-05-10T00:32:32.579Z,19.82
2018-05-10T00:33:33.304Z,19.79
2018-05-10T00:34:34.027Z,19.81
2018-05-10T00:35:34.751Z,19.74
2018-05-10T00:36:35.513Z,19.71
2018-05-10T00:37:36.275Z,19.73
2018-05-10T00:38:37.001Z,19.67
2018-05-10T00:39:37.726Z,19.67
2018-05-10T00:40:38.451Z,19.67
2018-05-10T00:41:39.177Z,19.67
2018-05-10T00:42:39.927Z,19.63
2018-05-10T00:43:40.686Z,19.59
2018-05-10T00:44:41.411Z,19.63
2018-05-10T00:45:42.147Z,19.64
2018-05-10T00:46:42.905Z,19.56
2018-05-10T00:47:43.657Z,19.63
2018-05-10T00:48:44.379Z,19.63
2018-05-10T00:49:45.101Z,19.54
2018-05-10T00:50:45.827Z,19.59
2018-05-10T00:51:46.553Z,19.64
2018-05-10T00:52:47.276Z,19.54
2018-05-10T00:53:48.011Z,19.51
2018-05-10T00:54:48.727Z,19.54
2018-05-10T00:55:49.457Z,19.49
2018-05-10T00:56:50.172Z,19.47
2018-05-10T00:57:50.905Z,19.54
2018-05-10T00:58:51.622Z,19.54
2018-05-10T00:59:52.339Z,19.48
2018-05-10T01:00:53.054Z,19.49
2018-05-10T01:01:53.782Z,19.45
2018-05-10T01:02:54.498Z,19.48
2018-05-10T01:03:55.214Z,19.45
2018-05-10T01:04:56.055Z,19.45
2018-05-10T01:05:56.648Z,19.41
2018-05-10T01:06:57.376Z,19.41
2018-05-10T01:07:58.093Z,19.36
2018-05-10T01:08:58.811Z,19.37
2018-05-10T01:09:59.540Z,19.33
2018-05-10T01:11:00.268Z,19.29
2018-05-10T01:12:00.981Z,19.34
2018-05-10T01:13:01.711Z,19.31
2018-05-10T01:14:02.427Z,19.37
2018-05-10T01:15:03.148Z,19.37
2018-05-10T01:16:03.875Z,19.31
2018-05-10T01:17:04.591Z,19.24
2018-05-10T01:18:05.308Z,19.31
2018-05-10T01:19:06.025Z,19.27
2018-05-10T01:20:06.754Z,19.21
2018-05-10T01:21:07.483Z,19.24
2018-05-10T01:22:08.198Z,19.26
2018-05-10T01:23:08.912Z,19.11
2018-05-10T01:24:09.629Z,19.09
2018-05-10T01:25:10.344Z,19.15
2018-05-10T01:26:11.060Z,19.11
2018-05-10T01:27:11.796Z,19.16
2018-05-10T01:28:12.506Z,19.12
2018-05-10T01:29:13.221Z,18.95
2018-05-10T01:30:13.935Z,18.95
2018-05-10T01:31:14.666Z,18.93
2018-05-10T01:32:15.384Z,18.95
2018-05-10T01:33:16.101Z,18.93
2018-05-10T01:34:16.817Z,18.86
2018-05-10T01:35:17.533Z,18.73
2018-05-10T01:36:18.262Z,18.78
2018-05-10T01:37:18.980Z,18.78
2018-05-10T01:38:19.695Z,18.78
2018-05-10T01:39:20.410Z,18.75
2018-05-10T01:40:21.126Z,18.75
2018-05-10T01:41:21.844Z,18.80
2018-05-10T01:42:22.560Z,18.74
2018-05-10T01:43:23.275Z,18.70
2018-05-10T01:44:23.990Z,18.66
2018-05-10T01:45:24.704Z,18.70
2018-05-10T01:46:25.441Z,18.62
2018-05-10T01:47:26.152Z,18.63
2018-05-10T01:48:26.870Z,18.56
2018-05-10T01:49:27.586Z,18.53
2018-05-10T01:50:28.302Z,18.50
2018-05-10T01:51:29.019Z,18.45
2018-05-10T01:52:29.734Z,18.50
2018-05-10T01:53:30.464Z,18.56
2018-05-10T01:54:31.181Z,18.47
2018-05-10T01:55:31.897Z,18.44
2018-05-10T01:56:32.614Z,18.47
2018-05-10T01:57:33.328Z,18.47
2018-05-10T01:58:34.041Z,18.47
2018-05-10T01:59:34.756Z,18.44
2018-05-10T02:00:35.488Z,18.49
2018-05-10T02:01:36.206Z,18.49
2018-05-10T02:02:36.922Z,18.45
2018-05-10T02:03:37.639Z,18.49
2018-05-10T02:04:38.353Z,18.43
2018-05-10T02:05:39.073Z,18.52
2018-05-10T02:06:39.800Z,18.45
2018-05-10T02:07:40.516Z,18.41
2018-05-10T02:08:41.235Z,18.44
2018-05-10T02:09:41.947Z,18.35
2018-05-10T02:10:42.679Z,18.41
2018-05-10T02:11:43.395Z,18.34
2018-05-10T02:12:44.111Z,18.28
2018-05-10T02:13:44.831Z,18.31
2018-05-10T02:14:45.554Z,18.26
2018-05-10T02:15:46.268Z,18.23
2018-05-10T02:16:46.984Z,18.29
2018-05-10T02:17:47.698Z,18.18
2018-05-10T02:18:48.411Z,18.20
2018-05-10T02:19:49.127Z,18.19
2018-05-10T02:20:49.849Z,18.19
2018-05-10T02:21:50.579Z,18.15
2018-05-10T02:22:51.306Z,18.04
2018-05-10T02:23:52.023Z,17.97
2018-05-10T02:24:52.739Z,18.03
2018-05-10T02:25:53.454Z,18.00
2018-05-10T02:26:54.169Z,17.83
2018-05-10T02:27:54.885Z,17.86
2018-05-10T02:28:55.598Z,17.79
2018-05-10T02:29:56.313Z,17.80
2018-05-10T02:30:57.029Z,17.82
2018-05-10T02:31:57.747Z,17.74
2018-05-10T02:32:58.472Z,17.78
2018-05-10T02:33:59.193Z,17.67
2018-05-10T02:34:59.924Z,17.59
2018-05-10T02:36:00.636Z,17.59
2018-05-10T02:37:01.353Z,17.63
2018-05-10T02:38:02.116Z,17.59
2018-05-10T02:39:02.798Z,17.51
2018-05-10T02:40:03.596Z,17.46
2018-05-10T02:41:04.251Z,17.46
2018-05-10T02:42:04.968Z,17.41
2018-05-10T02:43:05.686Z,17.49
2018-05-10T02:44:06.402Z,17.45
2018-05-10T02:45:07.224Z,17.33
2018-05-10T02:46:07.831Z,17.38
2018-05-10T02:47:08.547Z,17.36
2018-05-10T02:48:09.262Z,17.26
2018-05-10T02:49:09.978Z,17.29
2018-05-10T02:50:10.692Z,17.29
2018-05-10T02:51:11.414Z,17.19
2018-05-10T02:52:12.136Z,17.11
2018-05-10T02:53:12.852Z,17.19
2018-05-10T02:54:13.566Z,17.05
2018-05-10T02:55:14.281Z,17.02
2018-05-10T02:56:15.013Z,17.06
2018-05-10T02:57:15.728Z,17.02
2018-05-10T02:58:16.457Z,16.93
2018-05-10T02:59:17.173Z,16.94
2018-05-10T03:00:17.887Z,17.01
2018-05-10T03:01:18.602Z,17.04
2018-05-10T03:02:19.318Z,17.02
2018-05-10T03:03:20.032Z,16.86
2018-05-10T03:04:20.747Z,16.84
2018-05-10T03:05:21.463Z,16.89
2018-05-10T03:06:22.178Z,16.76
2018-05-10T03:07:22.896Z,16.76
2018-05-10T03:08:23.608Z,16.76
2018-05-10T03:09:24.326Z,16.74
2018-05-10T03:10:25.039Z,16.69
2018-05-10T03:11:25.752Z,16.74
2018-05-10T03:12:26.466Z,16.78
2018-05-10T03:13:27.195Z,16.75
2018-05-10T03:14:27.911Z,16.71
2018-05-10T03:15:28.627Z,16.69
2018-05-10T03:16:29.359Z,16.69
2018-05-10T03:17:30.075Z,16.72
2018-05-10T03:18:30.790Z,16.75
2018-05-10T03:19:31.505Z,16.72
2018-05-10T03:20:32.219Z,16.71
2018-05-10T03:21:32.950Z,16.71
2018-05-10T03:22:33.667Z,16.66
2018-05-10T03:23:34.397Z,16.72
2018-05-10T03:24:35.115Z,16.71
2018-05-10T03:25:35.833Z,16.71
2018-05-10T03:26:36.550Z,16.71
2018-05-10T03:27:37.273Z,16.71
2018-05-10T03:28:37.998Z,16.65
2018-05-10T03:29:38.715Z,16.61
2018-05-10T03:30:39.444Z,16.68
2018-05-10T03:31:40.161Z,16.64
2018-05-10T03:32:40.897Z,16.64
2018-05-10T03:33:41.609Z,16.66
2018-05-10T03:34:42.340Z,16.64
2018-05-10T03:35:43.057Z,16.60
2018-05-10T03:36:43.772Z,16.58
2018-05-10T03:37:44.488Z,16.58
2018-05-10T03:38:45.206Z,16.65
2018-05-10T03:39:45.921Z,16.58
2018-05-10T03:40:46.652Z,16.60
2018-05-10T03:41:47.371Z,16.65
2018-05-10T03:42:48.089Z,16.61
2018-05-10T03:43:48.809Z,16.61
2018-05-10T03:44:49.525Z,16.66
2018-05-10T03:45:50.243Z,16.66
2018-05-10T03:46:50.962Z,16.58
2018-05-10T03:47:51.678Z,16.61
2018-05-10T03:48:52.397Z,16.58
2018-05-10T03:49:53.130Z,16.58
2018-05-10T03:50:53.860Z,16.56
2018-05-10T03:51:54.577Z,16.57
2018-05-10T03:52:55.297Z,16.60
2018-05-10T03:53:56.053Z,16.57
2018-05-10T03:54:56.773Z,16.56
2018-05-10T03:55:57.505Z,16.54
2018-05-10T03:56:58.238Z,16.51
2018-05-10T03:57:58.957Z,16.50
2018-05-10T03:58:59.675Z,16.51
2018-05-10T04:00:00.394Z,16.54
2018-05-10T04:01:01.127Z,16.50
2018-05-10T04:02:01.848Z,16.51
2018-05-10T04:03:02.566Z,16.43
2018-05-10T04:04:03.286Z,16.39
2018-05-10T04:05:04.007Z,16.46
2018-05-10T04:06:04.809Z,16.36
2018-05-10T04:07:05.460Z,16.41
2018-05-10T04:08:06.178Z,16.36
2018-05-10T04:09:06.895Z,16.33
2018-05-10T04:10:07.614Z,16.26
2018-05-10T04:11:08.333Z,16.32
2018-05-10T04:12:09.051Z,16.21
2018-05-10T04:13:09.769Z,16.29
2018-05-10T04:14:10.488Z,16.31
2018-05-10T04:15:11.221Z,16.38
2018-05-10T04:16:11.939Z,16.41
2018-05-10T04:17:12.659Z,16.43
2018-05-10T04:18:13.378Z,16.38
2018-05-10T04:19:14.095Z,16.41
2018-05-10T04:20:14.815Z,16.35
2018-05-10T04:21:15.536Z,16.35
2018-05-10T04:22:16.255Z,16.36
2018-05-10T04:23:16.987Z,16.38
2018-05-10T04:24:17.707Z,16.36
2018-05-10T04:25:18.440Z,16.42
2018-05-10T04:26:19.160Z,16.41
2018-05-10T04:27:19.882Z,16.49
2018-05-10T04:28:20.601Z,16.49
2018-05-10T04:29:21.320Z,16.46
2018-05-10T04:30:22.044Z,16.51
2018-05-10T04:31:22.764Z,16.51
2018-05-10T04:32:23.498Z,16.53
2018-05-10T04:33:24.233Z,16.53
2018-05-10T04:34:24.954Z,16.60
2018-05-10T04:35:25.676Z,16.54
2018-05-10T04:36:26.411Z,16.54
2018-05-10T04:37:27.132Z,16.57
2018-05-10T04:38:27.852Z,16.61
2018-05-10T04:39:28.573Z,16.49
2018-05-10T04:40:29.309Z,16.51
2018-05-10T04:41:30.030Z,16.57
2018-05-10T04:42:30.750Z,16.64
2018-05-10T04:43:31.469Z,16.56
2018-05-10T04:44:32.204Z,16.54
2018-05-10T04:45:32.926Z,16.56
2018-05-10T04:46:33.645Z,16.51
2018-05-10T04:47:34.366Z,16.57
2018-05-10T04:48:35.087Z,16.51
2018-05-10T04:49:35.809Z,16.51
2018-05-10T04:50:36.528Z,16.49
2018-05-10T04:51:37.250Z,16.46
2018-05-10T04:52:37.984Z,16.49
2018-05-10T04:53:38.742Z,16.49
2018-05-10T04:54:39.422Z,16.50
2018-05-10T04:55:40.142Z,16.57
2018-05-10T04:56:40.870Z,16.47
2018-05-10T04:57:41.592Z,16.50
2018-05-10T04:58:42.332Z,16.53
2018-05-10T04:59:43.045Z,16.57
2018-05-10T05:00:43.766Z,16.36
2018-05-10T05:01:44.486Z,16.38
2018-05-10T05:02:45.204Z,16.47
2018-05-10T05:03:45.923Z,16.36
2018-05-10T05:04:46.641Z,16.28
2018-05-10T05:05:47.379Z,16.32
2018-05-10T05:06:48.097Z,16.31
2018-05-10T05:07:48.817Z,16.29
2018-05-10T05:08:49.561Z,16.32
2018-05-10T05:09:50.274Z,16.28
2018-05-10T05:10:50.995Z,16.17
2018-05-10T05:11:51.759Z,16.23
2018-05-10T05:12:52.441Z,16.21
2018-05-10T05:13:53.154Z,16.09
2018-05-10T05:14:53.888Z,16.15
2018-05-10T05:15:54.648Z,16.24
2018-05-10T05:16:55.324Z,16.26
2018-05-10T05:17:56.045Z,16.20
2018-05-10T05:18:56.763Z,16.24
2018-05-10T05:19:57.483Z,16.20
2018-05-10T05:20:58.202Z,16.17
2018-05-10T05:21:58.936Z,16.28
2018-05-10T05:22:59.653Z,16.33
2018-05-10T05:24:00.371Z,16.29
2018-05-10T05:25:01.107Z,16.29
2018-05-10T05:26:01.825Z,16.36
2018-05-10T05:27:02.548Z,16.41
2018-05-10T05:28:03.270Z,16.33
2018-05-10T05:29:04.002Z,16.39
2018-05-10T05:30:04.727Z,16.39
2018-05-10T05:31:05.445Z,16.38
2018-05-10T05:32:06.166Z,16.26
2018-05-10T05:33:06.885Z,16.35
2018-05-10T05:34:07.605Z,16.33
2018-05-10T05:35:08.325Z,16.23
2018-05-10T05:36:09.046Z,16.26
2018-05-10T05:37:09.767Z,16.17
2018-05-10T05:38:10.501Z,16.24
2018-05-10T05:39:11.236Z,16.15
2018-05-10T05:40:11.969Z,16.16
2018-05-10T05:41:12.707Z,16.08
2018-05-10T05:42:13.421Z,16.08
2018-05-10T05:43:14.227Z,15.98
2018-05-10T05:44:14.875Z,15.90
2018-05-10T05:45:15.594Z,15.94
2018-05-10T05:46:16.315Z,15.84
2018-05-10T05:47:17.036Z,15.73
2018-05-10T05:48:17.768Z,15.84
2018-05-10T05:49:18.490Z,15.86
2018-05-10T05:50:19.211Z,15.95
2018-05-10T05:51:19.947Z,16.10
2018-05-10T05:52:20.661Z,16.09
2018-05-10T05:53:21.383Z,16.12
2018-05-10T05:54:22.103Z,16.21
2018-05-10T05:55:22.823Z,16.17
2018-05-10T05:56:23.544Z,16.20
2018-05-10T05:57:24.264Z,16.31
2018-05-10T05:58:24.985Z,16.24
2018-05-10T05:59:25.721Z,16.28
2018-05-10T06:00:26.443Z,16.26
2018-05-10T06:01:27.163Z,16.31
2018-05-10T06:02:27.881Z,16.33
2018-05-10T06:03:28.602Z,16.26
2018-05-10T06:04:29.326Z,16.31
2018-05-10T06:05:30.043Z,16.33
2018-05-10T06:06:30.764Z,16.29
2018-05-10T06:07:31.486Z,16.32
2018-05-10T06:08:32.222Z,16.29
2018-05-10T06:09:32.940Z,16.26
2018-05-10T06:10:33.660Z,16.28
2018-05-10T06:11:34.384Z,16.33
2018-05-10T06:12:35.105Z,16.28
2018-05-10T06:13:35.827Z,16.28
2018-05-10T06:14:36.549Z,16.28
2018-05-10T06:15:37.382Z,16.29
2018-05-10T06:16:38.012Z,16.26
2018-05-10T06:17:38.734Z,16.29
2018-05-10T06:18:39.455Z,16.26
2018-05-10T06:19:40.179Z,16.16
2018-05-10T06:20:40.900Z,16.24
2018-05-10T06:21:41.620Z,16.28
2018-05-10T06:22:42.342Z,16.31
2018-05-10T06:23:43.064Z,16.20
2018-05-10T06:24:43.800Z,16.17
2018-05-10T06:25:44.507Z,16.31
2018-05-10T06:26:45.230Z,16.17
2018-05-10T06:27:45.951Z,16.16
2018-05-10T06:28:46.673Z,16.17
2018-05-10T06:29:47.395Z,16.33
2018-05-10T06:30:48.123Z,16.26
2018-05-10T06:31:48.841Z,16.10
2018-05-10T06:32:49.565Z,16.02
2018-05-10T06:33:50.286Z,16.21
2018-05-10T06:34:51.009Z,16.21
2018-05-10T06:35:51.744Z,16.21
2018-05-10T06:36:52.465Z,16.32
2018-05-10T06:37:53.188Z,16.33
2018-05-10T06:38:53.911Z,16.32
2018-05-10T06:39:54.632Z,16.35
2018-05-10T06:40:55.356Z,16.42
2018-05-10T06:41:56.081Z,16.53
2018-05-10T06:42:56.802Z,16.58
2018-05-10T06:43:57.526Z,16.66
2018-05-10T06:44:58.250Z,16.75
2018-05-10T06:45:58.988Z,16.90
2018-05-10T06:46:59.720Z,17.02
2018-05-10T06:48:00.454Z,17.02
2018-05-10T06:49:01.165Z,17.01
2018-05-10T06:50:01.904Z,17.04
2018-05-10T06:51:02.642Z,17.12
2018-05-10T06:52:03.365Z,17.04
2018-05-10T06:53:04.088Z,16.99
2018-05-10T06:54:04.812Z,17.08
2018-05-10T06:55:05.550Z,17.20
2018-05-10T06:56:06.287Z,17.36
2018-05-10T06:57:07.011Z,17.45
2018-05-10T06:58:07.737Z,17.60
2018-05-10T06:59:08.461Z,17.79
2018-05-10T07:00:09.199Z,17.85
2018-05-10T07:01:09.927Z,18.10
2018-05-10T07:02:10.651Z,18.18
2018-05-10T07:03:11.378Z,18.10
2018-05-10T07:04:12.100Z,17.78
2018-05-10T07:05:12.847Z,17.80
2018-05-10T07:06:13.582Z,17.68
2018-05-10T07:07:14.308Z,17.85
2018-05-10T07:08:15.035Z,17.49
2018-05-10T07:09:15.787Z,17.48
2018-05-10T07:10:16.501Z,17.39
2018-05-10T07:11:17.250Z,17.42
2018-05-10T07:12:17.982Z,17.52
2018-05-10T07:13:18.709Z,17.64
2018-05-10T07:14:19.433Z,17.76
2018-05-10T07:15:20.172Z,17.56
2018-05-10T07:16:20.912Z,17.46
2018-05-10T07:17:21.638Z,17.48
2018-05-10T07:18:22.361Z,17.38
2018-05-10T07:19:23.105Z,17.49
2018-05-10T07:20:23.825Z,17.23
2018-05-10T07:21:24.548Z,17.24
2018-05-10T07:22:25.289Z,17.16
2018-05-10T07:23:26.013Z,17.16
2018-05-10T07:24:26.735Z,17.27
2018-05-10T07:25:27.473Z,17.31
2018-05-10T07:26:28.185Z,17.48
2018-05-10T07:27:28.912Z,17.52
2018-05-10T07:28:29.636Z,17.42
2018-05-10T07:29:30.360Z,17.41
2018-05-10T07:30:31.086Z,17.38
2018-05-10T07:31:31.811Z,17.39
2018-05-10T07:32:32.540Z,17.38
2018-05-10T07:33:33.260Z,17.48
2018-05-10T07:34:33.985Z,17.42
2018-05-10T07:35:34.724Z,17.56
2018-05-10T07:36:35.450Z,17.49
2018-05-10T07:37:36.174Z,17.46
2018-05-10T07:38:36.901Z,17.46
2018-05-10T07:39:37.626Z,17.41
2018-05-10T07:40:38.365Z,17.38
2018-05-10T07:41:39.104Z,17.34
2018-05-10T07:42:39.830Z,17.39
2018-05-10T07:43:40.555Z,17.49
2018-05-10T07:44:41.292Z,17.46
2018-05-10T07:45:42.019Z,17.56
2018-05-10T07:46:42.757Z,17.67
2018-05-10T07:47:43.499Z,17.76
2018-05-10T07:48:44.224Z,17.78
2018-05-10T07:49:44.962Z,17.79
2018-05-10T07:50:45.688Z,18.08
2018-05-10T07:51:46.414Z,18.13
2018-05-10T07:52:47.140Z,18.16
2018-05-10T07:53:47.865Z,18.00
2018-05-10T07:54:48.591Z,18.11
2018-05-10T07:55:49.317Z,18.22
2018-05-10T07:56:50.055Z,18.11
2018-05-10T07:57:50.781Z,18.22
2018-05-10T07:58:51.507Z,18.38
2018-05-10T07:59:52.238Z,18.41
2018-05-10T08:00:52.977Z,18.49
2018-05-10T08:01:53.717Z,18.49
2018-05-10T08:02:54.443Z,18.44
2018-05-10T08:03:55.172Z,18.75
2018-05-10T08:04:55.899Z,19.00
2018-05-10T08:05:56.630Z,19.11
2018-05-10T08:06:57.364Z,19.00
2018-05-10T08:07:58.103Z,18.71
2018-05-10T08:08:58.834Z,18.96
2018-05-10T08:09:59.582Z,19.37
2018-05-10T08:11:00.329Z,19.30
2018-05-10T08:12:01.058Z,19.47
2018-05-10T08:13:01.792Z,19.67
2018-05-10T08:14:02.525Z,19.96
2018-05-10T08:15:03.257Z,20.22
2018-05-10T08:16:04.003Z,20.41
2018-05-10T08:17:04.831Z,20.29
2018-05-10T08:18:05.472Z,20.07
2018-05-10T08:19:06.207Z,20.02
2018-05-10T08:20:06.952Z,19.89
2018-05-10T08:21:07.686Z,19.58
2018-05-10T08:22:08.418Z,19.19
2018-05-10T08:23:09.163Z,19.12
2018-05-10T08:24:09.908Z,18.74
2018-05-10T08:25:10.629Z,18.74
2018-05-10T08:26:11.362Z,18.65
2018-05-10T08:27:12.095Z,18.75
2018-05-10T08:28:12.827Z,18.96
2018-05-10T08:29:13.559Z,18.98
2018-05-10T08:30:14.340Z,18.83
2018-05-10T08:31:15.025Z,18.86
2018-05-10T08:32:15.759Z,18.65
2018-05-10T08:33:16.491Z,18.83
2018-05-10T08:34:17.239Z,18.77
2018-05-10T08:35:17.984Z,18.77
2018-05-10T08:36:18.719Z,18.41
2018-05-10T08:37:19.447Z,18.53
2018-05-10T08:38:20.179Z,18.63
2018-05-10T08:39:20.922Z,18.73
2018-05-10T08:40:21.651Z,18.59
2018-05-10T08:41:22.387Z,18.56
2018-05-10T08:42:23.117Z,18.63
2018-05-10T08:43:23.848Z,18.77
2018-05-10T08:44:24.581Z,18.89
2018-05-10T08:45:25.311Z,18.81
2018-05-10T08:46:26.046Z,18.95
2018-05-10T08:47:26.778Z,19.27
2018-05-10T08:48:27.528Z,19.70
2018-05-10T08:49:28.260Z,19.91
2018-05-10T08:50:29.008Z,20.32
2018-05-10T08:51:29.768Z,20.37
2018-05-10T08:52:30.504Z,20.26
2018-05-10T08:53:31.247Z,20.48
2018-05-10T08:54:31.983Z,20.56
2018-05-10T08:55:32.728Z,20.70
2018-05-10T08:56:33.461Z,21.05
2018-05-10T08:57:34.196Z,21.33
2018-05-10T08:58:34.929Z,21.21
2018-05-10T08:59:35.676Z,20.80
2018-05-10T09:00:36.425Z,20.75
2018-05-10T09:01:37.160Z,20.92
2018-05-10T09:02:37.909Z,21.06
2018-05-10T09:03:38.657Z,21.18
2018-05-10T09:04:39.396Z,21.45
2018-05-10T09:05:40.124Z,21.60
2018-05-10T09:06:40.860Z,21.03
2018-05-10T09:07:41.603Z,21.15
2018-05-10T09:08:42.337Z,21.15
2018-05-10T09:09:43.069Z,21.17
2018-05-10T09:10:43.803Z,21.45
2018-05-10T09:11:44.552Z,21.36
2018-05-10T09:12:45.288Z,21.18
2018-05-10T09:13:46.019Z,21.54
2018-05-10T09:14:46.754Z,21.57
2018-05-10T09:15:47.488Z,21.37
2018-05-10T09:16:48.216Z,21.43
2018-05-10T09:17:48.949Z,21.29
2018-05-10T09:18:49.695Z,21.48
2018-05-10T09:19:50.428Z,21.25
2018-05-10T09:20:51.163Z,20.81
2018-05-10T09:21:51.896Z,21.02
2018-05-10T09:22:52.625Z,21.18
2018-05-10T09:23:53.357Z,20.87
2018-05-10T09:24:54.103Z,20.99
2018-05-10T09:25:54.912Z,20.60
2018-05-10T09:26:55.569Z,20.81
2018-05-10T09:27:56.304Z,21.11
2018-05-10T09:28:57.053Z,21.50
2018-05-10T09:29:57.780Z,21.52
2018-05-10T09:30:58.513Z,21.30
2018-05-10T09:31:59.247Z,21.15
2018-05-10T09:32:59.978Z,20.88
2018-05-10T09:34:00.710Z,20.87
2018-05-10T09:35:01.459Z,21.02
2018-05-10T09:36:02.185Z,21.11
2018-05-10T09:37:02.915Z,20.88
2018-05-10T09:38:03.647Z,20.85
2018-05-10T09:39:04.374Z,20.70
2018-05-10T09:40:05.103Z,20.70
2018-05-10T09:41:05.850Z,20.56
2018-05-10T09:42:06.580Z,20.36
2018-05-10T09:43:07.323Z,20.36
2018-05-10T09:44:08.054Z,20.28
2018-05-10T09:45:08.781Z,19.91
2018-05-10T09:46:09.520Z,19.89
2018-05-10T09:47:10.248Z,19.66
2018-05-10T09:48:10.979Z,19.81
2018-05-10T09:49:11.709Z,19.84
2018-05-10T09:50:12.440Z,19.85
2018-05-10T09:51:13.169Z,19.74
2018-05-10T09:52:13.899Z,19.63
2018-05-10T09:53:14.626Z,19.59
2018-05-10T09:54:15.358Z,19.44
2018-05-10T09:55:16.100Z,19.22
2018-05-10T09:56:16.829Z,19.34
2018-05-10T09:57:17.572Z,19.26
2018-05-10T09:58:18.302Z,19.22
2018-05-10T09:59:19.033Z,19.27
2018-05-10T10:00:19.760Z,19.22
2018-05-10T10:01:20.499Z,19.12
2018-05-10T10:02:21.227Z,18.86
2018-05-10T10:03:21.954Z,18.74
2018-05-10T10:04:22.683Z,18.70
2018-05-10T10:05:23.412Z,18.44
2018-05-10T10:06:24.147Z,18.18
2018-05-10T10:07:24.873Z,18.23
2018-05-10T10:08:25.599Z,17.94
2018-05-10T10:09:26.324Z,18.01
2018-05-10T10:10:27.049Z,18.10
2018-05-10T10:11:27.775Z,18.11
2018-05-10T10:12:28.500Z,18.04
2018-05-10T10:13:29.224Z,18.15
2018-05-10T10:14:29.941Z,18.13
2018-05-10T10:15:30.665Z,18.16
2018-05-10T10:16:31.388Z,18.07
2018-05-10T10:17:32.120Z,18.01
2018-05-10T10:18:32.850Z,18.10
2018-05-10T10:19:33.574Z,18.03
2018-05-10T10:20:34.297Z,18.11
2018-05-10T10:21:35.036Z,18.08
2018-05-10T10:22:35.758Z,18.18
2018-05-10T10:23:36.481Z,18.19
2018-05-10T10:24:37.212Z,18.16
2018-05-10T10:25:37.947Z,18.26
2018-05-10T10:26:38.665Z,18.41
2018-05-10T10:27:39.390Z,18.52
2018-05-10T10:28:40.115Z,18.47
2018-05-10T10:29:40.843Z,18.53
2018-05-10T10:30:41.572Z,18.71
2018-05-10T10:31:42.293Z,18.62
2018-05-10T10:32:43.019Z,18.66
2018-05-10T10:33:43.741Z,18.70
2018-05-10T10:34:44.467Z,18.59
2018-05-10T10:35:45.191Z,18.23
2018-05-10T10:36:45.918Z,18.08
2018-05-10T10:37:46.639Z,18.00
2018-05-10T10:38:47.362Z,17.82
2018-05-10T10:39:48.085Z,17.94
2018-05-10T10:40:48.809Z,17.82
2018-05-10T10:41:49.533Z,17.72
2018-05-10T10:42:50.260Z,17.54
2018-05-10T10:43:50.978Z,17.38
2018-05-10T10:44:51.704Z,17.19
2018-05-10T10:45:52.436Z,16.96
2018-05-10T10:46:53.157Z,16.78
2018-05-10T10:47:53.893Z,16.75
2018-05-10T10:48:54.615Z,16.76
2018-05-10T10:49:55.338Z,16.65
2018-05-10T10:50:56.059Z,16.64
2018-05-10T10:51:56.794Z,16.57
2018-05-10T10:52:57.623Z,16.61
2018-05-10T10:53:58.346Z,16.53
2018-05-10T10:54:58.989Z,16.64
2018-05-10T10:55:59.711Z,16.57
2018-05-10T10:57:00.433Z,16.57
2018-05-10T10:58:01.155Z,16.50
2018-05-10T10:59:01.876Z,16.49
2018-05-10T11:00:02.688Z,16.51
2018-05-10T11:01:03.320Z,16.54
2018-05-10T11:02:04.043Z,16.57
2018-05-10T11:03:04.764Z,16.64
2018-05-10T11:04:05.485Z,16.58
2018-05-10T11:05:06.207Z,16.64
2018-05-10T11:06:06.932Z,16.72
2018-05-10T11:07:07.666Z,16.81
2018-05-10T11:08:08.401Z,16.87
2018-05-10T11:09:09.142Z,16.91
2018-05-10T11:10:09.842Z,16.89
2018-05-10T11:11:10.565Z,16.84
2018-05-10T11:12:11.284Z,16.72
2018-05-10T11:13:12.005Z,16.57
2018-05-10T11:14:12.731Z,16.56
2018-05-10T11:15:13.463Z,16.54
2018-05-10T11:16:14.197Z,16.53
2018-05-10T11:17:14.922Z,16.39
2018-05-10T11:18:15.656Z,16.42
2018-05-10T11:19:16.389Z,16.43
2018-05-10T11:20:17.109Z,16.29
2018-05-10T11:21:17.829Z,16.17
2018-05-10T11:22:18.551Z,16.05
2018-05-10T11:23:19.271Z,16.01
2018-05-10T11:24:20.006Z,16.01
2018-05-10T11:25:20.764Z,16.00
2018-05-10T11:26:21.464Z,16.00
2018-05-10T11:27:22.229Z,15.90
2018-05-10T11:28:22.911Z,15.88
2018-05-10T11:29:23.632Z,15.82
2018-05-10T11:30:24.355Z,15.77
2018-05-10T11:31:25.078Z,15.82
2018-05-10T11:32:25.799Z,15.62
2018-05-10T11:33:26.520Z,15.62
2018-05-10T11:34:27.257Z,15.75
2018-05-10T11:35:27.978Z,15.72
2018-05-10T11:36:28.703Z,15.61
2018-05-10T11:37:29.437Z,15.51
2018-05-10T11:38:30.160Z,15.55
2018-05-10T11:39:30.882Z,15.59
2018-05-10T11:40:31.602Z,15.61
2018-05-10T11:41:32.325Z,15.51
2018-05-10T11:42:33.046Z,15.51
2018-05-10T11:43:33.769Z,15.54
2018-05-10T11:44:34.618Z,15.65
2018-05-10T11:45:35.224Z,15.75
2018-05-10T11:46:35.960Z,15.77
2018-05-10T11:47:36.681Z,15.70
2018-05-10T11:48:37.468Z,15.75
2018-05-10T11:49:38.125Z,15.82
2018-05-10T11:50:38.860Z,15.82
2018-05-10T11:51:39.584Z,15.76
2018-05-10T11:52:40.321Z,15.76
2018-05-10T11:53:41.042Z,15.83
2018-05-10T11:54:41.763Z,15.80
2018-05-10T11:55:42.484Z,15.80
2018-05-10T11:56:43.206Z,15.82
2018-05-10T11:57:43.928Z,15.72
2018-05-10T11:58:44.649Z,15.73
2018-05-10T11:59:45.371Z,15.75
2018-05-10T12:00:46.092Z,15.67
2018-05-10T12:01:46.813Z,15.62
2018-05-10T12:02:47.550Z,15.77
2018-05-10T12:03:48.272Z,15.76
2018-05-10T12:04:48.995Z,15.75
2018-05-10T12:05:49.727Z,15.65
2018-05-10T12:06:50.449Z,15.64
2018-05-10T12:07:51.169Z,15.76
2018-05-10T12:08:51.891Z,15.82
2018-05-10T12:09:52.611Z,15.84
2018-05-10T12:10:53.329Z,15.80
2018-05-10T12:11:54.049Z,15.76
2018-05-10T12:12:54.775Z,15.79
2018-05-10T12:13:55.507Z,15.88
2018-05-10T12:14:56.227Z,15.76
2018-05-10T12:15:56.963Z,15.72
2018-05-10T12:16:57.682Z,15.75
2018-05-10T12:17:58.402Z,15.65
2018-05-10T12:18:59.136Z,15.76
2018-05-10T12:19:59.857Z,15.73
2018-05-10T12:21:00.577Z,15.72
2018-05-10T12:22:01.298Z,15.62
2018-05-10T12:23:02.019Z,15.58
2018-05-10T12:24:02.754Z,15.67
2018-05-10T12:25:03.475Z,15.65
2018-05-10T12:26:04.195Z,15.61
2018-05-10T12:27:04.918Z,15.59
2018-05-10T12:28:05.638Z,15.55
2018-05-10T12:29:06.361Z,15.47
2018-05-10T12:30:07.086Z,15.54
2018-05-10T12:31:07.807Z,15.47
2018-05-10T12:32:08.524Z,15.46
2018-05-10T12:33:09.245Z,15.47
2018-05-10T12:34:09.969Z,15.42
2018-05-10T12:35:10.686Z,15.33
2018-05-10T12:36:11.420Z,15.37
2018-05-10T12:37:12.141Z,15.39
2018-05-10T12:38:12.862Z,15.28
2018-05-10T12:39:13.580Z,15.29
2018-05-10T12:40:14.300Z,15.22
2018-05-10T12:41:15.022Z,15.22
2018-05-10T12:42:15.741Z,15.25
2018-05-10T12:43:16.460Z,15.22
2018-05-10T12:44:17.180Z,15.18
2018-05-10T12:45:17.901Z,15.06
2018-05-10T12:46:18.623Z,15.02
2018-05-10T12:47:19.342Z,15.11
2018-05-10T12:48:20.064Z,15.15
2018-05-10T12:49:20.817Z,15.04
2018-05-10T12:50:21.539Z,15.04
2018-05-10T12:51:22.272Z,14.92
2018-05-10T12:52:23.018Z,14.86
2018-05-10T12:53:23.759Z,14.79
2018-05-10T12:54:24.544Z,14.84
2018-05-10T12:55:25.268Z,14.81
2018-05-10T12:56:26.175Z,14.78
2018-05-10T12:57:26.741Z,14.73
2018-05-10T12:58:27.476Z,14.72
2018-05-10T12:59:28.239Z,14.77
2018-05-10T13:00:28.991Z,14.66
2018-05-10T13:01:29.732Z,14.60